Time;durP1;ratioP1;P1;durP2;ratioP2;P2;SDS_P1;SDS_P2;PMS_P1;PMS_P2;Temp;Humidity;BMP_temperature;BMP_pressure;BME280_temperature;BME280_humidity;BME280_pressure;Samples;Min_cycle;Max_cycle;Signal;HPM_P1;HPM_P2
2022/02/08 00:00:49;;;;;;;0.10;0.10;;;5.40;99.90;;;;;;5034894;28;20139;-79
2022/02/08 00:03:18;;;;;;;0.10;0.10;;;5.40;99.90;;;;;;5052487;28;20077;-85
2022/02/08 00:05:56;;;;;;;0.10;0.10;;;5.40;99.90;;;;;;5052960;28;20037;-80
2022/02/08 00:08:22;;;;;;;0.10;0.10;;;5.40;99.90;;;;;;5052590;28;20045;-79
2022/02/08 00:10:49;;;;;;;0.10;0.10;;;5.40;99.90;;;;;;5036505;28;20045;-79
2022/02/08 00:13:16;;;;;;;0.10;0.10;;;5.40;99.90;;;;;;5036141;28;20395;-79
2022/02/08 00:15:42;;;;;;;0.10;0.10;;;5.80;99.90;;;;;;5052618;28;20076;-80
2022/02/08 00:18:09;;;;;;;1.10;0.22;;;5.30;99.90;;;;;;5053010;28;20052;-80
2022/02/08 00:20:36;;;;;;;0.10;0.10;;;5.40;99.90;;;;;;5069153;28;20498;-85
2022/02/08 00:23:02;;;;;;;0.10;0.10;;;5.30;99.90;;;;;;5052051;28;20490;-79
2022/02/08 00:25:29;;;;;;;0.10;0.10;;;5.30;99.90;;;;;;5052933;28;20037;-84
2022/02/08 00:27:59;;;;;;;0.10;0.10;;;5.50;99.90;;;;;;5052188;28;20045;-85
2022/02/08 00:30:26;;;;;;;0.10;0.10;;;5.20;99.90;;;;;;5053183;28;20048;-85
2022/02/08 00:32:52;;;;;;;0.10;0.10;;;5.20;99.90;;;;;;5051908;28;20392;-79
2022/02/08 00:35:19;;;;;;;0.10;0.10;;;5.20;99.90;;;;;;5052558;28;20056;-84
2022/02/08 00:37:46;;;;;;;0.10;0.10;;;5.20;99.90;;;;;;5051994;28;20470;-83
2022/02/08 00:40:13;;;;;;;0.10;0.10;;;5.20;99.90;;;;;;5052086;28;20494;-84
2022/02/08 00:42:40;;;;;;;0.10;0.10;;;5.50;99.90;;;;;;5068328;28;20049;-80
2022/02/08 00:45:25;;;;;;;0.10;0.10;;;5.20;99.90;;;;;;5051613;28;20051;-85
2022/02/08 00:48:18;;;;;;;0.10;0.10;;;5.20;99.90;;;;;;5051926;28;20055;-84
2022/02/08 00:50:40;;;;;;;0.10;0.10;;;5.50;99.90;;;;;;5054521;28;20041;-85
2022/02/08 00:53:07;;;;;;;0.10;0.10;;;5.20;99.90;;;;;;5068458;28;20103;-79
2022/02/08 00:55:34;;;;;;;0.10;0.10;;;5.80;99.90;;;;;;5064996;28;20030;-79
2022/02/08 00:58:00;;;;;;;0.08;0.08;;;5.20;99.90;;;;;;5035112;28;20049;-85
2022/02/08 01:00:27;;;;;;;0.10;0.10;;;5.20;99.90;;;;;;5052132;28;20041;-79
2022/02/08 01:02:57;;;;;;;0.10;0.10;;;5.20;99.90;;;;;;5035289;28;20487;-84
2022/02/08 01:05:24;;;;;;;0.10;0.10;;;5.20;99.90;;;;;;5051168;28;20076;-85
2022/02/08 01:07:51;;;;;;;0.20;0.20;;;5.20;99.90;;;;;;5034265;28;20065;-84
2022/02/08 01:10:20;;;;;;;0.10;0.10;;;5.20;99.90;;;;;;5051428;28;20033;-80
2022/02/08 01:12:48;;;;;;;0.10;0.10;;;5.20;99.90;;;;;;5051579;28;20041;-80
2022/02/08 01:15:17;;;;;;;0.10;0.10;;;5.20;99.90;;;;;;5035034;28;20492;-85
2022/02/08 01:17:47;;;;;;;0.10;0.10;;;5.20;99.90;;;;;;5052031;28;20516;-84
2022/02/08 01:20:18;;;;;;;0.10;0.10;;;5.30;99.90;;;;;;5035035;28;20037;-80
2022/02/08 01:22:45;;;;;;;0.10;0.10;;;5.30;99.90;;;;;;5035525;28;20045;-80
2022/02/08 01:25:19;;;;;;;0.10;0.10;;;5.20;99.90;;;;;;5034559;28;20045;-80
2022/02/08 01:27:52;;;;;;;0.10;0.10;;;5.30;99.90;;;;;;5051116;28;20885;-80
2022/02/08 01:30:31;;;;;;;0.10;0.10;;;5.30;99.90;;;;;;5035845;28;20044;-85
2022/02/08 01:33:21;;;;;;;0.10;0.10;;;5.30;99.90;;;;;;5052500;28;20052;-85
2022/02/08 01:35:52;;;;;;;0.10;0.10;;;5.30;99.90;;;;;;5053536;28;20045;-85
2022/02/08 01:38:25;;;;;;;0.10;0.10;;;5.30;99.90;;;;;;5050794;28;20045;-85
2022/02/08 01:41:33;;;;;;;0.10;0.10;;;5.50;99.90;;;;;;5050977;28;20045;-79
2022/02/08 01:46:25;;;;;;;0.10;0.10;;;5.50;99.90;;;;;;5051093;28;20142;-80
2022/02/08 01:48:59;;;;;;;0.10;0.10;;;5.40;99.90;;;;;;5037021;28;20044;-85
2022/02/08 01:51:26;;;;;;;0.10;0.10;;;5.40;99.90;;;;;;5050809;28;20056;-85
2022/02/08 01:53:52;;;;;;;0.00;0.00;;;5.40;99.90;;;;;;5050894;28;20041;-85
2022/02/08 01:56:19;;;;;;;0.10;0.10;;;5.50;99.90;;;;;;5050447;28;20108;-84
2022/02/08 01:58:46;;;;;;;0.10;0.10;;;5.50;99.90;;;;;;5033926;28;20079;-79
2022/02/08 02:01:13;;;;;;;0.20;0.20;;;5.40;99.90;;;;;;5050273;28;20052;-84
2022/02/08 02:03:42;;;;;;;0.10;0.10;;;5.50;99.90;;;;;;5034070;28;20079;-85
2022/02/08 02:06:09;;;;;;;0.10;0.10;;;5.50;99.90;;;;;;5034442;28;20490;-80
2022/02/08 02:08:36;;;;;;;0.10;0.10;;;5.60;99.90;;;;;;5034345;28;20124;-85
2022/02/08 02:11:03;;;;;;;0.10;0.10;;;6.10;99.90;;;;;;5033704;28;20042;-80
2022/02/08 02:16:03;;;;;;;0.10;0.10;;;5.60;99.90;;;;;;5067277;28;20056;-80
2022/02/08 02:18:30;;;;;;;0.10;0.10;;;5.60;99.90;;;;;;5034164;28;20413;-80
2022/02/08 02:20:57;;;;;;;0.10;0.10;;;5.60;99.90;;;;;;5049983;28;20041;-80
2022/02/08 02:23:24;;;;;;;0.10;0.10;;;6.10;99.90;;;;;;5033387;28;20041;-80
2022/02/08 02:25:51;;;;;;;0.57;0.57;;;5.70;99.90;;;;;;5050053;28;20402;-80
2022/02/08 02:28:17;;;;;;;0.10;0.10;;;5.70;99.90;;;;;;5033567;28;20033;-80
2022/02/08 02:30:44;;;;;;;0.10;0.10;;;5.70;99.90;;;;;;5033798;28;20033;-85
2022/02/08 02:33:11;;;;;;;0.10;0.10;;;5.70;99.90;;;;;;5033265;28;20490;-85
2022/02/08 02:35:38;;;;;;;0.10;0.10;;;5.80;99.90;;;;;;5050477;28;20041;-85
2022/02/08 02:38:06;;;;;;;0.10;0.10;;;5.80;99.90;;;;;;5049557;28;20207;-80
2022/02/08 02:40:33;;;;;;;0.10;0.10;;;5.80;99.90;;;;;;5049978;28;20502;-80
2022/02/08 02:43:00;;;;;;;0.10;0.10;;;5.90;99.90;;;;;;5050048;28;20048;-85
2022/02/08 02:45:27;;;;;;;0.10;0.10;;;5.90;99.90;;;;;;5049560;28;20029;-85
2022/02/08 02:47:55;;;;;;;0.08;0.08;;;6.40;99.90;;;;;;5033370;28;20073;-85
2022/02/08 02:50:24;;;;;;;0.10;0.10;;;5.90;99.90;;;;;;5049326;28;20037;-80
2022/02/08 02:52:52;;;;;;;0.10;0.10;;;5.90;99.90;;;;;;5049579;28;20048;-80
2022/02/08 02:55:19;;;;;;;0.10;0.10;;;6.00;99.90;;;;;;5049559;28;20068;-80
2022/02/08 02:57:49;;;;;;;0.08;0.08;;;6.00;99.90;;;;;;5049678;28;20107;-85
2022/02/08 03:06:04;;;;;;;0.10;0.10;;;6.10;99.90;;;;;;5066545;28;20051;-80
2022/02/08 03:19:26;;;;;;;0.10;0.10;;;6.30;99.90;;;;;;5065494;28;20506;-80
2022/02/08 03:21:53;;;;;;;0.10;0.10;;;6.30;99.90;;;;;;5049575;28;20081;-80
2022/02/08 03:24:20;;;;;;;0.10;0.10;;;6.40;99.90;;;;;;5032675;28;20045;-80
2022/02/08 03:26:46;;;;;;;0.03;0.03;;;6.40;99.90;;;;;;5049514;28;20536;-80
2022/02/08 03:29:13;;;;;;;0.10;0.10;;;6.40;99.90;;;;;;5049842;28;20047;-85
2022/02/08 03:31:40;;;;;;;0.10;0.10;;;6.50;99.90;;;;;;5037553;28;20033;-80
2022/02/08 03:34:07;;;;;;;0.05;0.05;;;6.50;99.90;;;;;;5053305;28;20416;-85
2022/02/08 03:36:33;;;;;;;0.10;0.10;;;6.70;99.90;;;;;;5053061;28;20041;-85
2022/02/08 03:39:17;;;;;;;0.10;0.10;;;6.60;99.90;;;;;;5053202;28;20470;-85
2022/02/08 03:41:48;;;;;;;0.10;0.10;;;6.60;99.90;;;;;;5053583;28;20049;-80
2022/02/08 03:44:18;;;;;;;0.08;0.08;;;6.60;99.90;;;;;;5037206;28;20079;-80
2022/02/08 03:46:45;;;;;;;0.10;0.10;;;6.70;99.90;;;;;;5037007;28;20069;-80
2022/02/08 03:49:13;;;;;;;0.10;0.10;;;6.80;99.90;;;;;;5059876;28;20044;-85
2022/02/08 03:51:57;;;;;;;0.10;0.10;;;6.70;99.90;;;;;;5069234;28;20048;-84
2022/02/08 03:54:24;;;;;;;0.10;0.10;;;6.70;99.90;;;;;;5073790;28;20041;-85
2022/02/08 03:56:51;;;;;;;0.10;0.10;;;6.80;99.90;;;;;;5056685;28;20113;-85
2022/02/08 03:59:18;;;;;;;0.10;0.10;;;6.80;99.90;;;;;;5066844;28;20049;-80
2022/02/08 04:07:06;;;;;;;0.00;0.00;;;7.00;99.90;;;;;;5072886;28;20048;-80
2022/02/08 04:09:33;;;;;;;0.00;0.00;;;7.00;99.90;;;;;;5037648;28;20038;-80
2022/02/08 04:12:08;;;;;;;0.10;0.10;;;7.00;99.90;;;;;;5055591;28;20402;-80
2022/02/08 04:14:49;;;;;;;0.10;0.10;;;7.00;99.90;;;;;;5029384;28;20128;-80
2022/02/08 04:31:21;;;;;;;0.00;0.00;;;7.10;99.90;;;;;;5089140;28;20444;-85
2022/02/08 04:38:49;;;;;;;0.10;0.10;;;7.30;99.90;;;;;;5072818;28;19923;-85
2022/02/08 04:41:20;;;;;;;0.10;0.10;;;7.20;99.90;;;;;;5072684;28;20045;-85
2022/02/08 04:44:36;;;;;;;0.10;0.10;;;7.30;99.90;;;;;;5072497;28;20123;-80
2022/02/08 04:49:21;;;;;;;0.08;0.08;;;7.30;99.90;;;;;;5074662;28;20088;-80
2022/02/08 04:51:55;;;;;;;0.00;0.00;;;7.40;99.90;;;;;;5072222;28;20541;-84
2022/02/08 05:27:44;;;;;;;0.00;0.00;;;7.60;99.90;;;;;;5074063;28;20040;-80
2022/02/08 05:34:11;;;;;;;0.00;0.00;;;7.60;99.90;;;;;;5074693;28;20551;-80
2022/02/08 05:43:26;;;;;;;0.00;0.00;;;7.60;99.90;;;;;;5072697;28;20410;-80
2022/02/08 05:48:29;;;;;;;0.10;0.10;;;7.70;99.90;;;;;;5071307;28;20136;-80
2022/02/08 05:51:05;;;;;;;0.10;0.10;;;7.80;99.90;;;;;;5070573;28;20091;-85
2022/02/08 05:53:42;;;;;;;0.00;0.00;;;7.70;99.90;;;;;;5071639;28;20127;-85
2022/02/08 05:56:10;;;;;;;0.10;0.10;;;7.80;99.90;;;;;;5072289;28;20040;-80
2022/02/08 05:58:40;;;;;;;0.25;0.20;;;7.80;99.90;;;;;;5069199;28;20056;-85
2022/02/08 06:01:06;;;;;;;0.10;0.10;;;7.80;99.90;;;;;;5030877;28;20106;-80
2022/02/08 06:03:33;;;;;;;0.10;0.10;;;7.80;99.90;;;;;;5016008;28;20042;-81
2022/02/08 06:06:00;;;;;;;0.10;0.10;;;7.80;99.90;;;;;;5050003;28;20568;-80
2022/02/08 06:08:27;;;;;;;0.00;0.00;;;7.90;99.90;;;;;;5033763;28;20041;-85
2022/02/08 06:11:37;;;;;;;0.10;0.10;;;7.80;99.90;;;;;;5033618;28;20064;-79
2022/02/08 06:13:43;;;;;;;0.10;0.10;;;7.80;99.90;;;;;;5042383;28;20456;-86
2022/02/08 06:16:17;;;;;;;0.35;0.35;;;7.80;99.90;;;;;;5050686;28;20041;-80
2022/02/08 06:18:45;;;;;;;0.05;0.05;;;7.90;99.90;;;;;;5030419;28;20038;-80
2022/02/08 06:21:13;;;;;;;0.10;0.10;;;7.80;99.90;;;;;;5045869;28;20492;-85
2022/02/08 06:23:40;;;;;;;0.10;0.10;;;7.90;99.90;;;;;;5033089;28;20033;-85
2022/02/08 06:26:07;;;;;;;0.00;0.00;;;7.90;99.90;;;;;;5066066;28;20041;-81
2022/02/08 06:28:34;;;;;;;0.10;0.10;;;8.30;99.90;;;;;;5032914;28;20505;-85
2022/02/08 06:31:00;;;;;;;0.00;0.00;;;7.90;99.90;;;;;;5065807;28;20095;-85
2022/02/08 06:33:27;;;;;;;0.10;0.10;;;7.90;99.90;;;;;;5049657;28;20045;-80
2022/02/08 06:35:54;;;;;;;0.10;0.10;;;7.90;99.90;;;;;;5049835;28;20094;-86
2022/02/08 06:38:21;;;;;;;0.10;0.10;;;7.90;99.90;;;;;;5049673;28;20557;-85
2022/02/08 06:40:51;;;;;;;0.10;0.10;;;7.90;99.90;;;;;;5049413;28;20045;-80
2022/02/08 06:43:20;;;;;;;0.10;0.10;;;7.90;99.90;;;;;;5049960;28;20041;-85
2022/02/08 06:45:47;;;;;;;0.10;0.10;;;7.90;99.90;;;;;;5032650;28;20041;-85
2022/02/08 06:48:13;;;;;;;0.00;0.00;;;8.00;99.90;;;;;;5049358;28;20128;-85
2022/02/08 06:50:40;;;;;;;0.10;0.10;;;8.00;99.90;;;;;;5032437;28;20072;-81
2022/02/08 06:53:07;;;;;;;0.08;0.08;;;8.00;99.90;;;;;;5049098;28;20045;-84
2022/02/08 06:55:34;;;;;;;0.10;0.10;;;8.00;99.90;;;;;;5049530;28;20075;-85
2022/02/08 06:58:04;;;;;;;0.10;0.10;;;8.00;99.90;;;;;;5049239;28;20140;-85
2022/02/08 07:00:36;;;;;;;0.03;0.03;;;8.00;99.90;;;;;;5033516;28;20521;-81
2022/02/08 07:03:04;;;;;;;0.10;0.10;;;8.00;99.90;;;;;;5033324;28;20045;-85
2022/02/08 07:05:31;;;;;;;0.00;0.00;;;8.00;99.90;;;;;;5048614;28;20048;-81
2022/02/08 07:07:58;;;;;;;0.10;0.10;;;8.00;99.90;;;;;;5048740;28;20121;-85
2022/02/08 07:10:26;;;;;;;0.10;0.10;;;8.00;99.90;;;;;;5056640;28;20033;-85
2022/02/08 07:12:55;;;;;;;0.08;0.08;;;8.00;99.90;;;;;;5057796;28;20045;-80
2022/02/08 07:15:22;;;;;;;0.00;0.00;;;8.10;99.90;;;;;;5049272;28;20514;-80
2022/02/08 07:17:49;;;;;;;0.10;0.10;;;8.10;99.90;;;;;;5048584;28;20053;-80
2022/02/08 07:20:16;;;;;;;0.20;0.20;;;8.10;99.90;;;;;;5049567;28;20574;-80
2022/02/08 07:22:43;;;;;;;0.00;0.00;;;8.10;99.90;;;;;;5049619;28;20037;-80
2022/02/08 07:25:10;;;;;;;0.03;0.03;;;8.10;99.90;;;;;;5049622;28;20440;-80
2022/02/08 07:27:39;;;;;;;0.20;0.20;;;8.40;99.90;;;;;;5065711;28;20544;-80
2022/02/08 07:30:11;;;;;;;0.00;0.00;;;8.10;99.90;;;;;;5066186;28;20040;-80
2022/02/08 07:32:40;;;;;;;0.10;0.10;;;8.10;99.90;;;;;;5046579;28;20179;-85
2022/02/08 07:37:51;;;;;;;0.10;0.10;;;8.20;99.90;;;;;;5071840;28;20041;-84
2022/02/08 07:40:44;;;;;;;0.10;0.10;;;8.20;99.90;;;;;;5071264;28;20041;-81
2022/02/08 07:43:06;;;;;;;0.10;0.10;;;8.20;99.90;;;;;;5071381;28;20045;-85
2022/02/08 07:45:33;;;;;;;0.03;0.03;;;8.20;99.90;;;;;;5069310;28;20029;-80
2022/02/08 07:48:00;;;;;;;0.03;0.03;;;8.20;99.90;;;;;;5060517;28;20524;-80
2022/02/08 07:50:27;;;;;;;0.00;0.00;;;8.20;99.90;;;;;;5049159;28;20033;-85
2022/02/08 07:52:54;;;;;;;0.00;0.00;;;8.20;99.90;;;;;;5032801;28;20045;-80
2022/02/08 07:55:22;;;;;;;0.10;0.10;;;8.30;99.90;;;;;;5049431;28;20091;-85
2022/02/08 07:57:50;;;;;;;0.10;0.10;;;8.20;99.90;;;;;;5032490;28;20057;-80
2022/02/08 08:00:17;;;;;;;0.10;0.10;;;8.20;99.90;;;;;;5061828;28;20057;-85
2022/02/08 08:02:44;;;;;;;0.00;0.00;;;8.30;99.90;;;;;;5052483;28;20052;-84
2022/02/08 08:05:11;;;;;;;0.10;0.10;;;8.30;99.90;;;;;;5068925;28;20044;-84
2022/02/08 08:07:38;;;;;;;0.10;0.10;;;8.30;99.90;;;;;;5052463;28;20047;-80
2022/02/08 08:10:06;;;;;;;0.00;0.00;;;8.30;99.90;;;;;;5068871;28;20045;-85
2022/02/08 08:12:35;;;;;;;0.00;0.00;;;8.30;99.90;;;;;;5041653;28;20049;-89
2022/02/08 08:15:12;;;;;;;0.00;0.00;;;8.30;99.90;;;;;;5032748;28;20738;-82
2022/02/08 08:17:56;;;;;;;0.05;0.05;;;8.30;99.90;;;;;;5053229;28;20574;-82
2022/02/08 08:20:23;;;;;;;0.03;0.03;;;8.70;99.90;;;;;;5052607;28;20137;-82
2022/02/08 08:22:50;;;;;;;0.05;0.05;;;8.30;99.90;;;;;;5052341;28;20139;-91
2022/02/08 08:25:17;;;;;;;0.00;0.00;;;8.30;99.90;;;;;;5052631;28;20084;-82
2022/02/08 08:27:44;;;;;;;0.03;0.03;;;8.40;99.90;;;;;;5068497;28;20041;-88
2022/02/08 08:30:11;;;;;;;0.10;0.10;;;8.40;99.90;;;;;;5052503;28;20041;-89
2022/02/08 08:32:39;;;;;;;0.00;0.00;;;8.40;99.90;;;;;;5052392;28;20132;-88
2022/02/08 08:35:08;;;;;;;0.00;0.00;;;8.50;99.90;;;;;;5050676;28;20044;-80
2022/02/08 08:37:40;;;;;;;0.10;0.10;;;8.40;99.90;;;;;;5051331;28;20041;-81
2022/02/08 08:40:21;;;;;;;0.00;0.00;;;8.40;99.90;;;;;;5036863;28;20059;-88
2022/02/08 08:43:21;;;;;;;0.05;0.05;;;8.40;99.90;;;;;;5071027;28;20123;-81
2022/02/08 08:53:21;;;;;;;0.10;0.10;;;8.50;99.90;;;;;;5069571;28;20048;-87
2022/02/08 08:55:48;;;;;;;0.00;0.00;;;8.50;99.90;;;;;;5035316;28;20096;-81
2022/02/08 08:58:15;;;;;;;0.00;0.00;;;8.50;99.90;;;;;;5035266;28;20077;-80
2022/02/08 09:00:42;;;;;;;0.08;0.08;;;8.60;99.90;;;;;;5052730;28;20050;-80
2022/02/08 09:03:08;;;;;;;0.10;0.10;;;8.50;99.90;;;;;;5050918;28;20131;-86
2022/02/08 09:05:35;;;;;;;0.10;0.10;;;8.50;99.90;;;;;;5035871;28;20510;-88
2022/02/08 09:08:02;;;;;;;0.00;0.00;;;8.50;99.90;;;;;;5052067;28;20600;-88
2022/02/08 09:10:38;;;;;;;0.00;0.00;;;8.50;99.90;;;;;;5051264;28;20076;-87
2022/02/08 09:13:29;;;;;;;0.00;0.00;;;8.60;99.90;;;;;;5051375;28;20818;-87
2022/02/08 09:16:02;;;;;;;0.17;0.10;;;8.60;99.90;;;;;;5069698;28;20045;-88
2022/02/08 09:21:27;;;;;;;0.00;0.00;;;8.70;99.90;;;;;;5053932;28;20049;-88
2022/02/08 09:24:17;;;;;;;0.00;0.00;;;8.70;99.90;;;;;;5036753;28;20072;-88
2022/02/08 09:29:47;;;;;;;0.00;0.00;;;8.80;99.90;;;;;;5067771;28;20042;-80
2022/02/08 09:32:18;;;;;;;0.10;0.10;;;8.70;99.90;;;;;;5038246;28;20100;-90
2022/02/08 09:34:46;;;;;;;0.00;0.00;;;8.80;99.90;;;;;;5067491;28;20120;-88
2022/02/08 09:37:15;;;;;;;0.10;0.10;;;8.80;99.90;;;;;;5035408;28;20044;-90
2022/02/08 09:39:44;;;;;;;0.10;0.10;;;8.80;99.90;;;;;;5052580;28;20042;-90
2022/02/08 09:42:12;;;;;;;0.00;0.00;;;8.90;99.90;;;;;;5034462;28;20114;-88
2022/02/08 09:44:39;;;;;;;0.10;0.10;;;8.90;99.90;;;;;;5042393;28;20073;-88
2022/02/08 09:47:10;;;;;;;0.10;0.10;;;8.90;99.90;;;;;;5077091;28;20517;-80
2022/02/08 09:49:42;;;;;;;0.10;0.10;;;8.90;99.90;;;;;;5058540;28;20060;-86
2022/02/08 09:52:10;;;;;;;0.00;0.00;;;9.00;99.90;;;;;;5068313;28;20094;-87
2022/02/08 09:54:38;;;;;;;0.10;0.10;;;9.00;99.90;;;;;;5068412;28;20087;-89
2022/02/08 09:57:04;;;;;;;0.00;0.00;;;9.00;99.90;;;;;;5050502;28;20466;-87
2022/02/08 09:59:34;;;;;;;0.10;0.10;;;9.00;99.90;;;;;;5050185;28;20093;-89
2022/02/08 10:02:01;;;;;;;0.00;0.00;;;9.00;99.90;;;;;;5034369;28;20049;-81
2022/02/08 10:04:28;;;;;;;0.10;0.10;;;9.10;99.90;;;;;;5050333;28;20049;-81
2022/02/08 10:06:55;;;;;;;0.00;0.00;;;9.10;99.90;;;;;;5067430;28;20044;-87
2022/02/08 10:09:32;;;;;;;0.00;0.00;;;9.10;99.90;;;;;;5050561;28;20038;-80
2022/02/08 10:11:59;;;;;;;0.98;0.85;;;9.10;99.90;;;;;;5050374;28;20041;-88
2022/02/08 10:18:53;;;;;;;0.10;0.10;;;9.20;99.90;;;;;;5041953;28;20048;-87
2022/02/08 10:22:48;;;;;;;0.00;0.00;;;9.10;99.90;;;;;;5067404;28;20410;-80
2022/02/08 10:28:41;;;;;;;0.00;0.00;;;9.10;99.90;;;;;;5066152;28;20457;-90
2022/02/08 10:32:00;;;;;;;;;;;9.10;99.90;;;;;;5064910;28;20048;-89
2022/02/08 10:39:26;;;;;;;0.10;0.10;;;9.20;99.90;;;;;;5052349;28;20045;-88
2022/02/08 10:41:53;;;;;;;0.10;0.10;;;9.20;99.90;;;;;;5055947;28;20048;-80
2022/02/08 10:44:20;;;;;;;0.05;0.05;;;9.20;99.90;;;;;;5049492;28;20633;-88
2022/02/08 10:46:59;;;;;;;0.00;0.00;;;9.20;99.90;;;;;;5050293;28;20075;-88
2022/02/08 10:49:33;;;;;;;0.00;0.00;;;9.20;99.90;;;;;;5049974;28;20858;-81
2022/02/08 10:52:02;;;;;;;0.00;0.00;;;9.30;99.90;;;;;;5049721;28;20038;-88
2022/02/08 10:54:38;;;;;;;0.00;0.00;;;9.30;99.90;;;;;;5033772;28;20071;-88
2022/02/08 10:57:14;;;;;;;0.00;0.00;;;9.20;99.90;;;;;;5050069;28;20045;-81
2022/02/08 10:59:51;;;;;;;0.00;0.00;;;9.20;99.90;;;;;;5050015;28;20537;-89
2022/02/08 11:03:04;;;;;;;0.10;0.10;;;9.20;99.90;;;;;;5049158;28;20133;-80
2022/02/08 11:14:02;;;;;;;0.00;0.00;;;9.20;99.90;;;;;;5065495;28;20045;-88
2022/02/08 11:16:43;;;;;;;0.00;0.00;;;9.30;99.90;;;;;;5066375;28;20446;-88
2022/02/08 11:19:40;;;;;;;0.00;0.00;;;9.30;99.90;;;;;;5035602;28;20099;-80
2022/02/08 11:22:07;;;;;;;0.00;0.00;;;9.30;99.90;;;;;;5069516;28;20547;-87
2022/02/08 11:24:45;;;;;;;0.00;0.00;;;9.30;99.90;;;;;;5054680;28;20052;-80
2022/02/08 11:27:17;;;;;;;0.10;0.10;;;9.30;99.90;;;;;;5034616;28;20056;-87
2022/02/08 11:30:02;;;;;;;0.00;0.00;;;9.40;99.90;;;;;;5049620;28;20505;-80
2022/02/08 11:46:55;;;;;;;0.10;0.10;;;9.40;99.90;;;;;;5074400;28;20103;-87
2022/02/08 11:56:16;;;;;;;0.00;0.00;;;9.40;99.90;;;;;;5040974;28;20445;-82
2022/02/08 11:58:36;;;;;;;0.00;0.00;;;9.40;99.90;;;;;;5052765;28;20037;-82
2022/02/08 12:00:47;;;;;;;0.00;0.00;;;9.40;99.90;;;;;;5068775;28;20052;-88
2022/02/08 12:06:12;;;;;;;0.00;0.00;;;9.40;99.90;;;;;;5069700;28;20052;-81
2022/02/08 12:08:30;;;;;;;0.00;0.00;;;9.40;99.90;;;;;;5046496;28;20038;-82
2022/02/08 12:11:18;;;;;;;0.00;0.00;;;9.40;99.90;;;;;;5054188;28;20036;-88
2022/02/08 12:50:07;;;;;;;0.00;0.00;;;9.30;99.90;;;;;;5055338;28;20128;-86
2022/02/08 13:00:58;;;;;;;;;;;9.30;99.90;;;;;;5054656;28;20065;-85
2022/02/08 13:15:30;;;;;;;0.00;0.00;;;9.50;99.90;;;;;;5087795;28;20084;-83
2022/02/08 13:18:23;;;;;;;0.00;0.00;;;9.50;99.90;;;;;;5088461;28;20056;-90
2022/02/08 14:05:11;;;;;;;0.10;0.10;;;9.40;99.90;;;;;;5017936;28;20046;-86
2022/02/08 14:07:13;;;;;;;0.10;0.10;;;9.40;99.90;;;;;;5057196;28;20116;-91
2022/02/08 14:09:55;;;;;;;;;;;9.40;99.90;;;;;;5072207;28;20048;-85
2022/02/08 14:23:27;;;;;;;0.00;0.00;;;9.40;99.90;;;;;;5070644;28;20037;-85
2022/02/08 14:29:09;;;;;;;0.10;0.10;;;9.40;99.90;;;;;;5073110;28;20037;-91
2022/02/08 15:09:49;;;;;;;0.00;0.00;;;9.10;99.90;;;;;;5031896;28;20048;-85
2022/02/08 15:12:24;;;;;;;0.00;0.00;;;9.10;99.90;;;;;;5000278;28;20038;-85
2022/02/08 15:17:41;;;;;;;0.00;0.00;;;9.00;99.90;;;;;;4999513;28;20192;-91
2022/02/08 15:20:12;;;;;;;0.08;0.03;;;9.00;99.90;;;;;;5030015;28;20073;-85
2022/02/08 15:22:39;;;;;;;0.00;0.00;;;9.00;99.90;;;;;;5046377;28;20050;-85
2022/02/08 15:25:12;;;;;;;0.00;0.00;;;8.90;99.90;;;;;;4998467;28;20037;-85
2022/02/08 15:27:40;;;;;;;0.08;0.08;;;8.90;99.90;;;;;;5003873;28;20064;-90
2022/02/08 15:30:09;;;;;;;0.00;0.00;;;8.90;99.90;;;;;;5018095;28;20050;-84
2022/02/08 15:32:36;;;;;;;0.00;0.00;;;8.90;99.90;;;;;;5040336;28;20029;-90
2022/02/08 15:35:04;;;;;;;0.10;0.10;;;8.90;99.90;;;;;;5065644;28;20482;-91
2022/02/08 15:37:31;;;;;;;0.00;0.00;;;8.80;99.90;;;;;;5054257;28;20044;-92
2022/02/08 15:39:59;;;;;;;0.00;0.00;;;8.90;99.90;;;;;;5054082;28;20049;-84
2022/02/08 15:42:52;;;;;;;0.10;0.10;;;8.80;99.90;;;;;;5054301;28;20057;-94
2022/02/08 15:45:44;;;;;;;0.03;0.03;;;8.80;99.90;;;;;;5056216;28;20046;-85
2022/02/08 15:48:13;;;;;;;0.00;0.00;;;8.40;99.90;;;;;;5053244;28;20087;-92
2022/02/08 16:00:08;;;;;;;0.10;0.10;;;8.80;99.90;;;;;;5053431;28;20049;-93
2022/02/08 16:09:35;;;;;;;0.00;0.00;;;8.70;99.90;;;;;;5054528;28;20128;-85
2022/02/08 16:17:33;;;;;;;0.10;0.10;;;8.60;99.90;;;;;;5054764;28;20056;-85
2022/02/08 16:28:13;;;;;;;0.00;0.00;;;8.60;99.90;;;;;;5069529;28;20057;-92
2022/02/08 16:49:09;;;;;;;0.00;0.00;;;8.60;99.90;;;;;;5052103;28;20044;-90
2022/02/08 16:59:32;;;;;;;0.00;0.00;;;8.60;99.90;;;;;;5073075;28;20052;-84
2022/02/08 17:02:30;;;;;;;0.00;0.00;;;8.60;99.90;;;;;;5058071;28;20057;-90
2022/02/08 17:05:00;;;;;;;0.00;0.00;;;8.60;99.90;;;;;;5057155;28;20080;-89
2022/02/08 17:07:27;;;;;;;0.00;0.00;;;8.60;99.90;;;;;;5072544;28;20099;-90
2022/02/08 17:09:58;;;;;;;0.03;0.03;;;8.60;99.90;;;;;;5051789;28;20040;-90
2022/02/08 17:12:34;;;;;;;0.10;0.10;;;8.60;99.90;;;;;;5041204;28;20041;-90
2022/02/08 17:45:26;;;;;;;0.00;0.00;;;8.70;99.90;;;;;;5056501;28;20131;-83
2022/02/08 17:47:51;;;;;;;0.00;0.00;;;8.60;99.90;;;;;;5055125;28;20045;-89
2022/02/08 17:50:19;;;;;;;0.08;0.08;;;8.50;99.90;;;;;;5050820;28;20483;-83
2022/02/08 17:52:47;;;;;;;1.98;0.35;;;8.50;99.90;;;;;;5067152;28;20669;-89
2022/02/08 17:55:16;;;;;;;0.10;0.10;;;8.50;99.90;;;;;;5064356;28;20041;-90
2022/02/08 17:57:43;;;;;;;0.00;0.00;;;8.50;99.90;;;;;;5061287;28;20037;-83
2022/02/08 18:00:13;;;;;;;0.10;0.10;;;8.50;99.90;;;;;;5050117;28;20589;-83
2022/02/08 18:02:43;;;;;;;0.00;0.00;;;8.50;99.90;;;;;;5050630;28;20099;-84
2022/02/08 18:05:11;;;;;;;0.00;0.00;;;8.40;99.90;;;;;;5042030;28;20037;-83
2022/02/08 18:07:38;;;;;;;0.10;0.10;;;8.40;99.90;;;;;;5051089;28;20045;-83
2022/02/08 18:10:07;;;;;;;0.10;0.10;;;8.40;99.90;;;;;;5034512;28;20371;-89
2022/02/08 18:12:34;;;;;;;0.00;0.00;;;8.40;99.90;;;;;;5033527;28;20038;-93
2022/02/08 18:15:06;;;;;;;0.00;0.00;;;8.40;99.90;;;;;;5050166;28;20456;-94
2022/02/08 18:17:38;;;;;;;0.00;0.00;;;8.40;99.90;;;;;;5033994;28;20557;-83
2022/02/08 18:20:20;;;;;;;0.10;0.10;;;8.40;99.90;;;;;;5056698;28;20065;-85
2022/02/08 19:03:51;;;;;;;0.00;0.00;;;8.50;99.90;;;;;;5065969;28;20073;-83
2022/02/08 19:20:03;;;;;;;0.00;0.00;;;8.50;99.90;;;;;;5050693;28;20053;-88
2022/02/08 19:22:30;;;;;;;1.98;1.35;;;8.50;99.90;;;;;;5035843;28;20045;-87
2022/02/08 19:24:57;;;;;;;0.17;0.10;;;8.50;99.90;;;;;;5032551;28;20067;-83
2022/02/08 19:27:26;;;;;;;0.10;0.10;;;8.50;99.90;;;;;;5049997;28;20037;-87
2022/02/08 19:29:53;;;;;;;0.05;0.05;;;8.50;99.90;;;;;;5050425;28;20037;-88
2022/02/08 19:32:20;;;;;;;0.00;0.00;;;8.50;99.90;;;;;;5038664;28;20266;-88
2022/02/08 19:34:47;;;;;;;0.03;0.03;;;8.50;99.90;;;;;;5057498;28;20489;-84
2022/02/08 19:37:17;;;;;;;0.00;0.00;;;8.50;99.90;;;;;;5065309;28;20132;-88
2022/02/08 19:39:45;;;;;;;0.00;0.00;;;8.50;99.90;;;;;;5048654;28;20041;-83
2022/02/08 19:42:13;;;;;;;0.00;0.00;;;8.50;99.90;;;;;;5049018;28;20080;-83
2022/02/08 19:44:41;;;;;;;0.05;0.05;;;8.40;99.90;;;;;;5065523;28;20048;-87
2022/02/08 19:47:08;;;;;;;0.10;0.10;;;8.40;99.90;;;;;;5048537;28;20077;-89
2022/02/08 19:49:36;;;;;;;0.00;0.00;;;8.40;99.90;;;;;;5048879;28;20120;-88
2022/02/08 19:52:03;;;;;;;0.00;0.00;;;8.40;99.90;;;;;;5049341;28;20041;-88
2022/02/08 19:54:36;;;;;;;0.00;0.00;;;8.30;99.90;;;;;;5049856;28;20132;-88
2022/02/08 19:57:12;;;;;;;0.03;0.03;;;8.30;99.90;;;;;;5065526;28;20483;-83
2022/02/08 19:59:41;;;;;;;0.00;0.00;;;8.30;99.90;;;;;;5048564;28;20060;-89
2022/02/08 20:02:13;;;;;;;0.00;0.00;;;8.30;99.90;;;;;;5048770;28;20050;-83
2022/02/08 20:04:45;;;;;;;0.10;0.10;;;8.30;99.90;;;;;;5065366;28;20125;-83
2022/02/08 20:07:12;;;;;;;0.03;0.03;;;8.20;99.90;;;;;;5048360;28;20042;-89
2022/02/08 20:09:39;;;;;;;0.17;0.17;;;8.20;99.90;;;;;;5048666;28;20041;-89
2022/02/08 20:12:06;;;;;;;0.08;0.08;;;8.20;99.90;;;;;;5074928;28;20143;-83
2022/02/08 20:14:33;;;;;;;0.00;0.00;;;8.20;99.90;;;;;;5051837;28;20041;-90
2022/02/08 20:17:01;;;;;;;0.00;0.00;;;8.20;99.90;;;;;;5044576;28;20049;-83
2022/02/08 20:19:28;;;;;;;0.00;0.00;;;8.20;99.90;;;;;;5052728;28;20041;-83
2022/02/08 20:22:02;;;;;;;0.10;0.10;;;8.20;99.90;;;;;;5035646;28;20097;-85
2022/02/08 20:24:29;;;;;;;0.00;0.00;;;8.20;99.90;;;;;;5038235;28;20052;-91
2022/02/08 20:29:31;;;;;;;0.00;0.00;;;8.40;99.90;;;;;;5081229;28;20445;-84
2022/02/08 20:31:58;;;;;;;0.47;0.47;;;8.30;99.90;;;;;;5068516;28;20071;-85
2022/02/08 20:34:30;;;;;;;0.00;0.00;;;8.30;99.90;;;;;;5041002;28;20493;-85
2022/02/08 20:36:58;;;;;;;0.00;0.00;;;8.80;99.90;;;;;;5072790;28;20041;-90
2022/02/08 20:39:26;;;;;;;0.00;0.00;;;8.30;99.90;;;;;;5047214;28;20033;-85
2022/02/08 20:41:54;;;;;;;0.00;0.00;;;8.30;99.90;;;;;;5039700;28;20604;-85
2022/02/08 20:44:23;;;;;;;0.00;0.00;;;8.30;99.90;;;;;;5086883;28;20052;-89
2022/02/08 20:47:00;;;;;;;0.00;0.00;;;8.30;99.90;;;;;;5067109;28;20052;-84
2022/02/08 20:49:27;;;;;;;0.00;0.00;;;8.20;99.90;;;;;;5070127;28;20561;-83
2022/02/08 20:51:54;;;;;;;0.10;0.10;;;8.10;99.90;;;;;;5051480;28;20120;-83